Athens, West Virginia
Current Conditions -  °F | °C
As of 5:52 AM on Sunday 21 Dec 2014 (Local Time) from KBLF Reporting Station
Overcast Overcast  
Wind Chill: 32°   Ceiling: 2600
Heat Index: 32°   Visibility: 10mi
Dew Point: 27°   Wind: 0mph
Humidity: 82%   Direction: NA
Pressure: 30.19"   Gusts: NA
Location:  37.42°N, 81.02°W
Report Text: KBLF 211052Z AUTO 00000KT 10SM OVC026 00/M03 A3019 RMK AO2 SLP236 T00001028
Loading
Personal Weather Stations






























Interactive Weather Map New forecast layout! Learn more

10-Day Weather Forecast

Advertisements
Track Severe Weather on mobile